createdAt,value
2018-08-09T00:00:17.672Z,1015.45
2018-08-09T00:01:17.616Z,1015.48
2018-08-09T00:02:17.368Z,1015.43
2018-08-09T00:03:17.383Z,1015.44
2018-08-09T00:04:17.443Z,1015.42
2018-08-09T00:05:17.424Z,1015.44
2018-08-09T00:06:17.388Z,1015.46
2018-08-09T00:07:17.359Z,1015.49
2018-08-09T00:08:17.358Z,1015.45
2018-08-09T00:09:17.365Z,1015.45
2018-08-09T00:10:17.523Z,1015.41
2018-08-09T00:11:17.372Z,1015.48
2018-08-09T00:12:17.435Z,1015.47
2018-08-09T00:13:17.470Z,1015.49
2018-08-09T00:14:17.503Z,1015.48
2018-08-09T00:15:17.385Z,1015.49
2018-08-09T00:16:17.403Z,1015.49
2018-08-09T00:17:17.437Z,1015.51
2018-08-09T00:18:17.415Z,1015.52
2018-08-09T00:19:17.668Z,1015.51
2018-08-09T00:20:17.505Z,1015.51
2018-08-09T00:21:17.459Z,1015.44
2018-08-09T00:22:17.464Z,1015.42
2018-08-09T00:23:17.400Z,1015.44
2018-08-09T00:24:17.560Z,1015.4
2018-08-09T00:25:17.387Z,1015.41
2018-08-09T00:26:17.610Z,1015.41
2018-08-09T00:27:17.412Z,1015.44
2018-08-09T00:28:17.434Z,1015.42
2018-08-09T00:29:17.561Z,1015.41
2018-08-09T00:30:17.391Z,1015.37
2018-08-09T00:31:17.541Z,1015.39
2018-08-09T00:32:17.466Z,1015.41
2018-08-09T00:33:17.579Z,1015.41
2018-08-09T00:34:17.422Z,1015.41
2018-08-09T00:35:17.418Z,1015.33
2018-08-09T00:36:17.429Z,1015.32
2018-08-09T00:37:17.620Z,1015.3
2018-08-09T00:38:17.915Z,1015.31
2018-08-09T00:39:17.589Z,1015.29
2018-08-09T00:40:17.500Z,1015.3
2018-08-09T00:41:17.422Z,1015.27
2018-08-09T00:42:17.546Z,1015.24
2018-08-09T00:43:17.408Z,1015.26
2018-08-09T00:44:17.438Z,1015.24
2018-08-09T00:45:17.409Z,1015.23
2018-08-09T00:46:17.488Z,1015.23
2018-08-09T00:47:17.434Z,1015.25
2018-08-09T00:48:17.453Z,1015.2
2018-08-09T00:49:17.417Z,1015.27
2018-08-09T00:50:17.933Z,1015.19
2018-08-09T00:51:17.462Z,1015.17
2018-08-09T00:52:17.695Z,1015.17
2018-08-09T00:53:17.600Z,1015.21
2018-08-09T00:54:17.437Z,1015.19
2018-08-09T00:55:17.584Z,1015.2
2018-08-09T00:56:17.458Z,1015.18
2018-08-09T00:57:17.457Z,1015.18
2018-08-09T00:58:17.592Z,1015.22
2018-08-09T00:59:17.468Z,1015.18
2018-08-09T01:00:17.850Z,1015.27
2018-08-09T01:01:17.450Z,1015.26
2018-08-09T01:02:17.430Z,1015.21
2018-08-09T01:03:17.517Z,1015.23
2018-08-09T01:04:17.746Z,1015.23
2018-08-09T01:05:17.442Z,1015.25
2018-08-09T01:06:17.485Z,1015.23
2018-08-09T01:07:17.469Z,1015.23
2018-08-09T01:08:17.764Z,1015.24
2018-08-09T01:09:17.467Z,1015.24
2018-08-09T01:10:17.604Z,1015.21
2018-08-09T01:11:17.520Z,1015.21
2018-08-09T01:12:17.541Z,1015.22
2018-08-09T01:13:17.465Z,1015.21
2018-08-09T01:14:17.437Z,1015.2
2018-08-09T01:15:17.548Z,1015.16
2018-08-09T01:16:17.472Z,1015.17
2018-08-09T01:17:17.524Z,1015.21
2018-08-09T01:18:17.465Z,1015.15
2018-08-09T01:19:17.472Z,1015.13
2018-08-09T01:20:17.455Z,1015.11
2018-08-09T01:21:17.466Z,1015.13
2018-08-09T01:22:17.488Z,1015.09
2018-08-09T01:23:17.482Z,1015.12
2018-08-09T01:24:17.460Z,1015.14
2018-08-09T01:25:17.657Z,1015.13
2018-08-09T01:26:17.474Z,1015.14
2018-08-09T01:27:17.468Z,1015.16
2018-08-09T01:28:17.479Z,1015.13
2018-08-09T01:29:17.464Z,1015.1
2018-08-09T01:30:17.487Z,1015.14
2018-08-09T01:31:17.647Z,1015.13
2018-08-09T01:32:17.501Z,1015.15
2018-08-09T01:33:17.475Z,1015.1
2018-08-09T01:34:17.630Z,1015.13
2018-08-09T01:35:17.883Z,1015.08
2018-08-09T01:36:18.144Z,1015.1
2018-08-09T01:37:17.559Z,1015.08
2018-08-09T01:38:17.500Z,1015.11
2018-08-09T01:39:17.476Z,1015.1
2018-08-09T01:40:17.480Z,1015.08
2018-08-09T01:41:17.597Z,1015.06
2018-08-09T01:42:17.493Z,1015.07
2018-08-09T01:43:17.664Z,1015.07
2018-08-09T01:44:17.508Z,1015.06
2018-08-09T01:45:17.522Z,1015.06
2018-08-09T01:46:18.065Z,1015.05
2018-08-09T01:47:17.532Z,1015.03
2018-08-09T01:48:17.818Z,1015
2018-08-09T01:49:17.531Z,1014.98
2018-08-09T01:50:17.674Z,1014.93
2018-08-09T01:51:17.758Z,1014.96
2018-08-09T01:52:17.546Z,1014.95
2018-08-09T01:53:17.518Z,1014.94
2018-08-09T01:54:17.515Z,1014.93
2018-08-09T01:55:18.168Z,1014.9
2018-08-09T01:56:17.650Z,1014.87
2018-08-09T01:57:17.507Z,1014.9
2018-08-09T01:58:17.517Z,1014.87
2018-08-09T01:59:17.517Z,1014.89
2018-08-09T02:00:17.526Z,1014.93
2018-08-09T02:01:17.618Z,1014.93
2018-08-09T02:02:17.511Z,1014.91
2018-08-09T02:03:17.572Z,1014.9
2018-08-09T02:04:17.554Z,1014.88
2018-08-09T02:05:17.537Z,1014.89
2018-08-09T02:06:17.789Z,1014.85
2018-08-09T02:07:17.554Z,1014.88
2018-08-09T02:08:17.641Z,1014.84
2018-08-09T02:09:17.910Z,1014.78
2018-08-09T02:10:17.623Z,1014.78
2018-08-09T02:11:17.572Z,1014.79
2018-08-09T02:12:17.535Z,1014.73
2018-08-09T02:13:17.536Z,1014.69
2018-08-09T02:14:17.542Z,1014.71
2018-08-09T02:15:17.988Z,1014.64
2018-08-09T02:16:17.909Z,1014.66
2018-08-09T02:17:17.570Z,1014.66
2018-08-09T02:18:17.617Z,1014.68
2018-08-09T02:19:17.568Z,1014.63
2018-08-09T02:20:17.928Z,1014.62
2018-08-09T02:21:17.545Z,1014.61
2018-08-09T02:22:17.715Z,1014.58
2018-08-09T02:23:17.542Z,1014.6
2018-08-09T02:24:17.634Z,1014.56
2018-08-09T02:25:17.573Z,1014.56
2018-08-09T02:26:17.951Z,1014.57
2018-08-09T02:27:17.881Z,1014.54
2018-08-09T02:28:17.696Z,1014.52
2018-08-09T02:29:17.660Z,1014.45
2018-08-09T02:30:17.588Z,1014.44
2018-08-09T02:31:17.615Z,1014.44
2018-08-09T02:32:17.554Z,1014.44
2018-08-09T02:33:17.997Z,1014.4
2018-08-09T02:34:17.557Z,1014.41
2018-08-09T02:35:17.569Z,1014.35
2018-08-09T02:36:17.957Z,1014.38
2018-08-09T02:37:17.840Z,1014.41
2018-08-09T02:38:17.570Z,1014.41
2018-08-09T02:39:17.568Z,1014.4
2018-08-09T02:40:17.571Z,1014.4
2018-08-09T02:41:17.579Z,1014.38
2018-08-09T02:42:17.583Z,1014.36
2018-08-09T02:43:17.569Z,1014.34
2018-08-09T02:44:17.554Z,1014.36
2018-08-09T02:45:17.557Z,1014.35
2018-08-09T02:46:17.666Z,1014.41
2018-08-09T02:47:17.595Z,1014.4
2018-08-09T02:48:17.579Z,1014.44
2018-08-09T02:49:17.590Z,1014.44
2018-08-09T02:50:17.831Z,1014.43
2018-08-09T02:51:17.585Z,1014.44
2018-08-09T02:52:17.683Z,1014.43
2018-08-09T02:53:17.608Z,1014.41
2018-08-09T02:54:17.616Z,1014.42
2018-08-09T02:55:18.004Z,1014.43
2018-08-09T02:56:17.795Z,1014.44
2018-08-09T02:57:17.661Z,1014.48
2018-08-09T02:58:17.591Z,1014.47
2018-08-09T02:59:17.759Z,1014.46
2018-08-09T03:00:17.946Z,1014.51
2018-08-09T03:01:17.590Z,1014.5
2018-08-09T03:02:17.581Z,1014.49
2018-08-09T03:03:17.586Z,1014.46
2018-08-09T03:04:17.661Z,1014.46
2018-08-09T03:05:17.651Z,1014.44
2018-08-09T03:06:17.905Z,1014.42
2018-08-09T03:07:17.997Z,1014.43
2018-08-09T03:08:17.605Z,1014.43
2018-08-09T03:09:18.098Z,1014.4
2018-08-09T03:10:18.085Z,1014.4
2018-08-09T03:11:17.805Z,1014.41
2018-08-09T03:12:17.720Z,1014.39
2018-08-09T03:13:17.631Z,1014.4
2018-08-09T03:14:17.625Z,1014.4
2018-08-09T03:15:17.697Z,1014.38
2018-08-09T03:16:17.919Z,1014.4
2018-08-09T03:17:17.714Z,1014.41
2018-08-09T03:18:17.734Z,1014.43
2018-08-09T03:19:17.738Z,1014.47
2018-08-09T03:20:18.144Z,1014.49
2018-08-09T03:21:17.640Z,1014.49
2018-08-09T03:22:17.604Z,1014.5
2018-08-09T03:23:17.691Z,1014.5
2018-08-09T03:24:18.046Z,1014.46
2018-08-09T03:25:17.666Z,1014.41
2018-08-09T03:26:17.733Z,1014.45
2018-08-09T03:27:17.716Z,1014.48
2018-08-09T03:28:17.748Z,1014.48
2018-08-09T03:29:17.636Z,1014.47
2018-08-09T03:30:17.660Z,1014.47
2018-08-09T03:31:17.712Z,1014.49
2018-08-09T03:32:17.679Z,1014.52
2018-08-09T03:33:17.789Z,1014.54
2018-08-09T03:34:17.636Z,1014.49
2018-08-09T03:35:17.632Z,1014.47
2018-08-09T03:36:17.742Z,1014.52
2018-08-09T03:37:17.645Z,1014.53
2018-08-09T03:38:17.745Z,1014.49
2018-08-09T03:39:17.640Z,1014.47
2018-08-09T03:40:17.829Z,1014.51
2018-08-09T03:41:17.649Z,1014.52
2018-08-09T03:42:17.737Z,1014.52
2018-08-09T03:43:17.788Z,1014.53
2018-08-09T03:44:17.641Z,1014.48
2018-08-09T03:45:17.641Z,1014.5
2018-08-09T03:46:17.850Z,1014.49
2018-08-09T03:47:17.685Z,1014.5
2018-08-09T03:48:17.771Z,1014.46
2018-08-09T03:49:17.714Z,1014.45
2018-08-09T03:50:17.709Z,1014.48
2018-08-09T03:51:17.768Z,1014.45
2018-08-09T03:52:17.672Z,1014.46
2018-08-09T03:53:17.980Z,1014.47
2018-08-09T03:54:17.666Z,1014.46
2018-08-09T03:55:17.670Z,1014.47
2018-08-09T03:56:17.844Z,1014.47
2018-08-09T03:57:17.693Z,1014.45
2018-08-09T03:58:17.811Z,1014.45
2018-08-09T03:59:17.660Z,1014.49
2018-08-09T04:00:17.687Z,1014.47
2018-08-09T04:01:17.695Z,1014.51
2018-08-09T04:02:17.836Z,1014.49
2018-08-09T04:03:17.680Z,1014.5
2018-08-09T04:04:17.677Z,1014.5
2018-08-09T04:05:17.667Z,1014.5
2018-08-09T04:06:17.698Z,1014.46
2018-08-09T04:07:17.663Z,1014.42
2018-08-09T04:08:17.681Z,1014.43
2018-08-09T04:09:17.675Z,1014.43
2018-08-09T04:10:17.697Z,1014.41
2018-08-09T04:11:17.698Z,1014.45
2018-08-09T04:12:17.865Z,1014.45
2018-08-09T04:13:17.731Z,1014.46
2018-08-09T04:14:17.701Z,1014.43
2018-08-09T04:15:17.790Z,1014.45
2018-08-09T04:16:17.685Z,1014.46
2018-08-09T04:17:17.701Z,1014.47
2018-08-09T04:18:17.668Z,1014.44
2018-08-09T04:19:17.744Z,1014.5
2018-08-09T04:20:17.698Z,1014.42
2018-08-09T04:21:17.691Z,1014.39
2018-08-09T04:22:17.733Z,1014.47
2018-08-09T04:23:17.798Z,1014.48
2018-08-09T04:24:17.802Z,1014.48
2018-08-09T04:25:17.710Z,1014.52
2018-08-09T04:26:17.718Z,1014.51
2018-08-09T04:27:17.701Z,1014.53
2018-08-09T04:28:17.717Z,1014.59
2018-08-09T04:29:17.912Z,1014.58
2018-08-09T04:30:18.035Z,1014.55
2018-08-09T04:31:17.738Z,1014.61
2018-08-09T04:32:17.736Z,1014.57
2018-08-09T04:33:17.721Z,1014.62
2018-08-09T04:34:17.746Z,1014.58
2018-08-09T04:35:17.736Z,1014.61
2018-08-09T04:36:17.985Z,1014.69
2018-08-09T04:37:17.739Z,1014.69
2018-08-09T04:38:17.729Z,1014.72
2018-08-09T04:39:17.721Z,1014.68
2018-08-09T04:40:17.753Z,1014.7
2018-08-09T04:41:18.075Z,1014.73
2018-08-09T04:42:17.725Z,1014.75
2018-08-09T04:43:17.707Z,1014.78
2018-08-09T04:44:17.732Z,1014.78
2018-08-09T04:45:17.778Z,1014.78
2018-08-09T04:46:17.749Z,1014.82
2018-08-09T04:47:17.856Z,1014.84
2018-08-09T04:48:17.738Z,1014.81
2018-08-09T04:49:18.015Z,1014.81
2018-08-09T04:50:17.711Z,1014.84
2018-08-09T04:51:17.735Z,1014.84
2018-08-09T04:52:17.923Z,1014.87
2018-08-09T04:53:18.080Z,1014.9
2018-08-09T04:54:17.724Z,1014.94
2018-08-09T04:55:17.792Z,1015
2018-08-09T04:56:17.710Z,1015.01
2018-08-09T04:57:17.715Z,1015.02
2018-08-09T04:58:17.967Z,1015.08
2018-08-09T04:59:17.745Z,1015.11
2018-08-09T05:00:17.876Z,1015.14
2018-08-09T05:01:17.733Z,1015.16
2018-08-09T05:02:17.741Z,1015.17
2018-08-09T05:03:17.753Z,1015.2
2018-08-09T05:04:17.975Z,1015.18
2018-08-09T05:05:17.747Z,1015.2
2018-08-09T05:06:17.785Z,1015.2
2018-08-09T05:07:17.973Z,1015.22
2018-08-09T05:08:17.749Z,1015.2
2018-08-09T05:09:17.747Z,1015.21
2018-08-09T05:10:17.795Z,1015.21
2018-08-09T05:11:17.761Z,1015.21
2018-08-09T05:12:17.766Z,1015.16
2018-08-09T05:13:18.111Z,1015.11
2018-08-09T05:14:17.767Z,1015.09
2018-08-09T05:15:17.752Z,1015.05
2018-08-09T05:16:17.869Z,1015.01
2018-08-09T05:17:17.820Z,1014.97
2018-08-09T05:18:17.775Z,1015.01
2018-08-09T05:19:17.790Z,1015.01
2018-08-09T05:20:17.781Z,1015
2018-08-09T05:21:17.767Z,1015.01
2018-08-09T05:22:17.860Z,1015.02
2018-08-09T05:23:17.839Z,1015.04
2018-08-09T05:24:17.791Z,1015.01
2018-08-09T05:25:17.770Z,1015.03
2018-08-09T05:26:17.832Z,1015.02
2018-08-09T05:27:17.787Z,1015.04
2018-08-09T05:28:17.782Z,1015.05
2018-08-09T05:29:17.785Z,1015.02
2018-08-09T05:30:17.795Z,1015.02
2018-08-09T05:31:17.780Z,1015.03
2018-08-09T05:32:17.830Z,1014.99
2018-08-09T05:33:17.781Z,1015
2018-08-09T05:34:18.015Z,1014.96
2018-08-09T05:35:18.178Z,1014.97
2018-08-09T05:36:18.008Z,1014.89
2018-08-09T05:37:18.107Z,1014.83
2018-08-09T05:38:17.842Z,1014.8
2018-08-09T05:39:17.911Z,1014.79
2018-08-09T05:40:17.957Z,1014.81
2018-08-09T05:41:17.991Z,1014.78
2018-08-09T05:42:17.841Z,1014.75
2018-08-09T05:43:17.862Z,1014.72
2018-08-09T05:44:17.855Z,1014.74
2018-08-09T05:45:17.988Z,1014.75
2018-08-09T05:46:17.983Z,1014.68
2018-08-09T05:47:17.929Z,1014.72
2018-08-09T05:48:17.971Z,1014.66
2018-08-09T05:49:17.927Z,1014.63
2018-08-09T05:50:17.993Z,1014.63
2018-08-09T05:51:18.162Z,1014.61
2018-08-09T05:52:17.883Z,1014.64
2018-08-09T05:53:22.188Z,1014.64
2018-08-09T05:54:17.798Z,1014.6
2018-08-09T05:55:17.841Z,1014.64
2018-08-09T05:56:17.960Z,1014.65
2018-08-09T05:57:21.714Z,1014.6
2018-08-09T05:58:20.108Z,1014.61
2018-08-09T05:59:17.959Z,1014.59
2018-08-09T06:00:17.874Z,1014.61
2018-08-09T06:01:17.855Z,1014.62
2018-08-09T06:02:17.900Z,1014.65
2018-08-09T06:03:17.867Z,1014.67
2018-08-09T06:04:18.044Z,1014.61
2018-08-09T06:05:17.891Z,1014.6
2018-08-09T06:06:17.823Z,1014.6
2018-08-09T06:07:18.204Z,1014.59
2018-08-09T06:08:18.004Z,1014.54
2018-08-09T06:09:17.927Z,1014.52
2018-08-09T06:10:18.100Z,1014.52
2018-08-09T06:11:17.822Z,1014.48
2018-08-09T06:12:17.856Z,1014.48
2018-08-09T06:13:17.955Z,1014.46
2018-08-09T06:14:17.976Z,1014.45
2018-08-09T06:15:18.013Z,1014.48
2018-08-09T06:16:18.145Z,1014.46
2018-08-09T06:17:17.854Z,1014.43
2018-08-09T06:18:17.859Z,1014.47
2018-08-09T06:19:17.851Z,1014.43
2018-08-09T06:20:17.924Z,1014.43
2018-08-09T06:21:17.977Z,1014.39
2018-08-09T06:22:17.942Z,1014.38
2018-08-09T06:23:17.944Z,1014.35
2018-08-09T06:24:17.887Z,1014.37
2018-08-09T06:25:17.908Z,1014.33
2018-08-09T06:26:18.015Z,1014.27
2018-08-09T06:27:17.877Z,1014.23
2018-08-09T06:28:17.899Z,1014.21
2018-08-09T06:29:17.877Z,1014.24
2018-08-09T06:30:17.987Z,1014.19
2018-08-09T06:31:17.859Z,1014.15
2018-08-09T06:32:17.874Z,1014.14
2018-08-09T06:33:17.877Z,1014.09
2018-08-09T06:34:17.888Z,1014.1
2018-08-09T06:35:17.868Z,1014.06
2018-08-09T06:36:17.898Z,1014
2018-08-09T06:37:17.888Z,1013.98
2018-08-09T06:38:17.935Z,1013.94
2018-08-09T06:39:17.893Z,1013.92
2018-08-09T06:40:17.873Z,1013.88
2018-08-09T06:41:17.885Z,1013.9
2018-08-09T06:42:17.868Z,1013.88
2018-08-09T06:43:17.911Z,1013.89
2018-08-09T06:44:17.872Z,1013.9
2018-08-09T06:45:17.937Z,1013.89
2018-08-09T06:46:17.998Z,1013.88
2018-08-09T06:47:17.858Z,1013.84
2018-08-09T06:48:17.960Z,1013.82
2018-08-09T06:49:17.926Z,1013.8
2018-08-09T06:50:18.006Z,1013.77
2018-08-09T06:51:17.933Z,1013.75
2018-08-09T06:52:18.007Z,1013.73
2018-08-09T06:53:17.923Z,1013.73
2018-08-09T06:54:17.959Z,1013.72
2018-08-09T06:55:17.898Z,1013.71
2018-08-09T06:56:18.773Z,1013.67
2018-08-09T06:57:18.222Z,1013.65
2018-08-09T06:58:18.047Z,1013.65
2018-08-09T06:59:17.942Z,1013.65
2018-08-09T07:00:17.936Z,1013.62
2018-08-09T07:01:17.926Z,1013.6
2018-08-09T07:02:17.955Z,1013.6
2018-08-09T07:03:17.910Z,1013.58
2018-08-09T07:04:17.918Z,1013.64
2018-08-09T07:05:17.987Z,1013.56
2018-08-09T07:06:18.069Z,1013.6
2018-08-09T07:07:18.080Z,1013.61
2018-08-09T07:08:17.948Z,1013.61
2018-08-09T07:09:18.136Z,1013.63
2018-08-09T07:10:17.983Z,1013.61
2018-08-09T07:11:18.324Z,1013.63
2018-08-09T07:12:18.063Z,1013.61
2018-08-09T07:13:17.910Z,1013.58
2018-08-09T07:14:17.955Z,1013.56
2018-08-09T07:15:18.174Z,1013.49
2018-08-09T07:16:18.119Z,1013.44
2018-08-09T07:17:17.909Z,1013.42
2018-08-09T07:18:18.033Z,1013.43
2018-08-09T07:19:17.981Z,1013.38
2018-08-09T07:20:18.013Z,1013.43
2018-08-09T07:21:18.003Z,1013.41
2018-08-09T07:22:17.926Z,1013.4
2018-08-09T07:23:17.955Z,1013.43
2018-08-09T07:24:17.960Z,1013.4
2018-08-09T07:25:17.959Z,1013.38
2018-08-09T07:26:18.069Z,1013.43
2018-08-09T07:27:17.929Z,1013.41
2018-08-09T07:28:18.009Z,1013.41
2018-08-09T07:29:18.136Z,1013.49
2018-08-09T07:30:17.996Z,1013.47
2018-08-09T07:31:18.038Z,1013.49
2018-08-09T07:32:18.068Z,1013.53
2018-08-09T07:33:17.956Z,1013.51
2018-08-09T07:34:17.984Z,1013.49
2018-08-09T07:35:17.964Z,1013.5
2018-08-09T07:36:17.967Z,1013.54
2018-08-09T07:37:18.283Z,1013.49
2018-08-09T07:38:18.211Z,1013.43
2018-08-09T07:39:18.116Z,1013.43
2018-08-09T07:40:18.011Z,1013.41
2018-08-09T07:41:18.068Z,1013.34
2018-08-09T07:42:17.972Z,1013.29
2018-08-09T07:43:18.100Z,1013.27
2018-08-09T07:44:17.976Z,1013.25
2018-08-09T07:45:17.938Z,1013.18
2018-08-09T07:46:17.947Z,1013.14
2018-08-09T07:47:17.958Z,1013.1
2018-08-09T07:48:17.987Z,1013.07
2018-08-09T07:49:17.954Z,1013.09
2018-08-09T07:50:17.961Z,1013.08
2018-08-09T07:51:17.963Z,1013.06
2018-08-09T07:52:17.958Z,1013.04
2018-08-09T07:53:17.952Z,1013.05
2018-08-09T07:54:18.036Z,1013.02
2018-08-09T07:55:17.965Z,1013.01
2018-08-09T07:56:17.995Z,1013
2018-08-09T07:57:17.993Z,1012.99
2018-08-09T07:58:17.986Z,1012.99
2018-08-09T07:59:17.979Z,1012.94
2018-08-09T08:00:17.987Z,1013.01
2018-08-09T08:01:18.004Z,1013.03
2018-08-09T08:02:18.026Z,1013.03
2018-08-09T08:03:17.965Z,1013.06
2018-08-09T08:04:18.057Z,1013.06
2018-08-09T08:05:18.034Z,1013.12
2018-08-09T08:06:17.985Z,1013.13
2018-08-09T08:07:17.994Z,1013.17
2018-08-09T08:08:18.086Z,1013.18
2018-08-09T08:09:18.028Z,1013.17
2018-08-09T08:10:17.977Z,1013.24
2018-08-09T08:11:18.156Z,1013.21
2018-08-09T08:12:18.027Z,1013.26
2018-08-09T08:13:18.136Z,1013.18
2018-08-09T08:14:17.990Z,1013.26
2018-08-09T08:15:18.032Z,1013.2
2018-08-09T08:16:17.987Z,1013.21
2018-08-09T08:17:17.985Z,1013.24
2018-08-09T08:18:18.095Z,1013.2
2018-08-09T08:19:18.008Z,1013.22
2018-08-09T08:20:18.050Z,1013.23
2018-08-09T08:21:18.015Z,1013.22
2018-08-09T08:22:18.048Z,1013.2
2018-08-09T08:23:18.048Z,1013.22
2018-08-09T08:24:18.048Z,1013.2
2018-08-09T08:25:17.997Z,1013.15
2018-08-09T08:26:18.007Z,1013.14
2018-08-09T08:27:18.046Z,1013.1
2018-08-09T08:28:18.110Z,1013.12
2018-08-09T08:29:18.122Z,1013.1
2018-08-09T08:30:18.119Z,1013.13
2018-08-09T08:31:18.005Z,1013.12
2018-08-09T08:32:17.990Z,1013.15
2018-08-09T08:33:18.000Z,1013.14
2018-08-09T08:34:18.149Z,1013.14
2018-08-09T08:35:18.010Z,1013.11
2018-08-09T08:36:18.078Z,1013.07
2018-08-09T08:37:18.045Z,1013.03
2018-08-09T08:38:18.019Z,1013
2018-08-09T08:39:18.050Z,1013.02
2018-08-09T08:40:18.003Z,1012.98
2018-08-09T08:41:18.184Z,1012.96
2018-08-09T08:42:18.333Z,1012.97
2018-08-09T08:43:18.230Z,1012.92
2018-08-09T08:44:18.254Z,1012.97
2018-08-09T08:45:18.004Z,1012.94
2018-08-09T08:46:18.006Z,1012.9
2018-08-09T08:47:18.299Z,1012.92
2018-08-09T08:48:18.094Z,1012.94
2018-08-09T08:49:18.080Z,1012.9
2018-08-09T08:50:18.024Z,1012.91
2018-08-09T08:51:18.038Z,1012.91
2018-08-09T08:52:18.037Z,1012.92
2018-08-09T08:53:18.216Z,1012.91
2018-08-09T08:54:18.122Z,1012.88
2018-08-09T08:55:18.145Z,1012.84
2018-08-09T08:56:18.064Z,1012.87
2018-08-09T08:57:18.029Z,1012.89
2018-08-09T08:58:18.027Z,1012.87
2018-08-09T08:59:18.053Z,1012.9
2018-08-09T09:00:18.047Z,1012.87
2018-08-09T09:01:18.076Z,1012.85
2018-08-09T09:02:18.066Z,1012.85
2018-08-09T09:03:18.043Z,1012.8
2018-08-09T09:04:18.170Z,1012.85
2018-08-09T09:05:18.056Z,1012.83
2018-08-09T09:06:18.058Z,1012.79
2018-08-09T09:07:18.073Z,1012.75
2018-08-09T09:08:18.044Z,1012.72
2018-08-09T09:09:18.061Z,1012.68
2018-08-09T09:10:18.072Z,1012.68
2018-08-09T09:11:18.115Z,1012.67
2018-08-09T09:12:18.042Z,1012.64
2018-08-09T09:13:18.091Z,1012.62
2018-08-09T09:14:18.065Z,1012.62
2018-08-09T09:15:18.051Z,1012.65
2018-08-09T09:16:18.098Z,1012.6
2018-08-09T09:17:18.288Z,1012.62
2018-08-09T09:18:18.127Z,1012.68
2018-08-09T09:19:18.273Z,1012.64
2018-08-09T09:20:18.092Z,1012.66
2018-08-09T09:21:18.176Z,1012.69
2018-08-09T09:22:18.061Z,1012.65
2018-08-09T09:23:18.064Z,1012.64
2018-08-09T09:24:18.184Z,1012.67
2018-08-09T09:25:18.086Z,1012.61
2018-08-09T09:26:18.157Z,1012.62
2018-08-09T09:27:18.247Z,1012.55
2018-08-09T09:28:18.093Z,1012.55
2018-08-09T09:29:18.149Z,1012.53
2018-08-09T09:30:18.080Z,1012.51
2018-08-09T09:31:18.086Z,1012.47
2018-08-09T09:32:18.070Z,1012.45
2018-08-09T09:33:18.091Z,1012.48
2018-08-09T09:34:18.067Z,1012.51
2018-08-09T09:35:18.127Z,1012.53
2018-08-09T09:36:18.095Z,1012.48
2018-08-09T09:37:18.266Z,1012.47
2018-08-09T09:38:18.124Z,1012.43
2018-08-09T09:39:18.203Z,1012.41
2018-08-09T09:40:18.118Z,1012.35
2018-08-09T09:41:18.207Z,1012.36
2018-08-09T09:42:18.128Z,1012.35
2018-08-09T09:43:18.101Z,1012.32
2018-08-09T09:44:18.217Z,1012.36
2018-08-09T09:45:18.161Z,1012.32
2018-08-09T09:46:18.154Z,1012.33
2018-08-09T09:47:18.130Z,1012.37
2018-08-09T09:48:18.241Z,1012.31
2018-08-09T09:49:18.135Z,1012.32
2018-08-09T09:50:18.152Z,1012.28
2018-08-09T09:51:18.097Z,1012.29
2018-08-09T09:52:18.303Z,1012.25
2018-08-09T09:53:18.130Z,1012.24
2018-08-09T09:54:18.121Z,1012.21
2018-08-09T09:55:18.526Z,1012.14
2018-08-09T09:56:18.136Z,1012.15
2018-08-09T09:57:18.194Z,1012.17
2018-08-09T09:58:18.164Z,1012.15
2018-08-09T09:59:18.134Z,1012.1
2018-08-09T10:00:18.445Z,1012.12
2018-08-09T10:01:18.389Z,1012.08
2018-08-09T10:02:18.157Z,1012.09
2018-08-09T10:03:18.151Z,1012.07
2018-08-09T10:04:18.127Z,1012.04
2018-08-09T10:05:18.144Z,1012.02
2018-08-09T10:06:18.210Z,1012
2018-08-09T10:07:18.249Z,1011.99
2018-08-09T10:08:18.215Z,1011.97
2018-08-09T10:09:18.169Z,1011.96
2018-08-09T10:10:18.185Z,1011.91
2018-08-09T10:11:18.206Z,1011.91
2018-08-09T10:12:18.229Z,1011.91
2018-08-09T10:13:18.145Z,1011.87
2018-08-09T10:14:18.161Z,1011.89
2018-08-09T10:15:18.168Z,1011.84
2018-08-09T10:16:18.161Z,1011.83
2018-08-09T10:17:18.145Z,1011.76
2018-08-09T10:18:18.163Z,1011.76
2018-08-09T10:19:18.146Z,1011.72
2018-08-09T10:20:18.186Z,1011.66
2018-08-09T10:21:18.162Z,1011.61
2018-08-09T10:22:18.159Z,1011.58
2018-08-09T10:23:18.169Z,1011.52
2018-08-09T10:24:18.161Z,1011.49
2018-08-09T10:25:18.182Z,1011.47
2018-08-09T10:26:18.205Z,1011.42
2018-08-09T10:27:18.160Z,1011.43
2018-08-09T10:28:18.167Z,1011.4
2018-08-09T10:29:18.175Z,1011.43
2018-08-09T10:30:18.194Z,1011.44
2018-08-09T10:31:18.165Z,1011.39
2018-08-09T10:32:18.180Z,1011.42
2018-08-09T10:33:18.187Z,1011.44
2018-08-09T10:34:18.173Z,1011.39
2018-08-09T10:35:18.409Z,1011.41
2018-08-09T10:36:18.358Z,1011.32
2018-08-09T10:37:18.412Z,1011.32
2018-08-09T10:38:18.169Z,1011.31
2018-08-09T10:39:18.175Z,1011.34
2018-08-09T10:40:18.203Z,1011.37
2018-08-09T10:41:18.214Z,1011.39
2018-08-09T10:42:18.222Z,1011.42
2018-08-09T10:43:18.182Z,1011.44
2018-08-09T10:44:18.216Z,1011.41
2018-08-09T10:45:18.404Z,1011.44
2018-08-09T10:46:18.554Z,1011.43
2018-08-09T10:47:18.179Z,1011.4
2018-08-09T10:48:18.182Z,1011.4
2018-08-09T10:49:18.496Z,1011.4
2018-08-09T10:50:18.198Z,1011.33
2018-08-09T10:51:18.213Z,1011.3
2018-08-09T10:52:18.200Z,1011.26
2018-08-09T10:53:18.207Z,1011.3
2018-08-09T10:54:18.729Z,1011.23
2018-08-09T10:55:18.292Z,1011.26
2018-08-09T10:56:18.219Z,1011.17
2018-08-09T10:57:18.268Z,1011.16
2018-08-09T10:58:18.225Z,1011.14
2018-08-09T10:59:18.203Z,1011.08
2018-08-09T11:00:18.229Z,1011.07
2018-08-09T11:01:18.214Z,1011.05
2018-08-09T11:02:18.210Z,1011.04
2018-08-09T11:03:18.244Z,1011.04
2018-08-09T11:04:18.326Z,1011.01
2018-08-09T11:05:18.391Z,1011.04
2018-08-09T11:06:18.286Z,1011
2018-08-09T11:07:18.218Z,1010.96
2018-08-09T11:08:18.458Z,1010.95
2018-08-09T11:09:18.279Z,1010.92
2018-08-09T11:10:18.229Z,1010.93
2018-08-09T11:11:18.247Z,1010.92
2018-08-09T11:12:18.392Z,1010.92
2018-08-09T11:13:18.258Z,1010.91
2018-08-09T11:14:18.214Z,1010.86
2018-08-09T11:15:18.324Z,1010.82
2018-08-09T11:16:18.278Z,1010.8
2018-08-09T11:17:18.278Z,1010.75
2018-08-09T11:18:18.355Z,1010.78
2018-08-09T11:19:18.245Z,1010.76
2018-08-09T11:20:18.259Z,1010.74
2018-08-09T11:21:18.613Z,1010.81
2018-08-09T11:22:18.326Z,1010.79
2018-08-09T11:23:18.366Z,1010.81
2018-08-09T11:24:18.305Z,1010.8
2018-08-09T11:25:18.276Z,1010.68
2018-08-09T11:26:18.330Z,1010.63
2018-08-09T11:27:18.240Z,1010.61
2018-08-09T11:28:18.240Z,1010.64
2018-08-09T11:29:18.268Z,1010.58
2018-08-09T11:30:18.323Z,1010.54
2018-08-09T11:31:18.278Z,1010.55
2018-08-09T11:32:18.240Z,1010.45
2018-08-09T11:33:18.260Z,1010.47
2018-08-09T11:34:18.315Z,1010.42
2018-08-09T11:35:18.358Z,1010.44
2018-08-09T11:36:18.259Z,1010.42
2018-08-09T11:37:18.385Z,1010.42
2018-08-09T11:38:18.273Z,1010.43
2018-08-09T11:39:18.248Z,1010.4
2018-08-09T11:40:18.256Z,1010.37
2018-08-09T11:41:18.315Z,1010.37
2018-08-09T11:42:18.272Z,1010.37
2018-08-09T11:43:18.259Z,1010.27
2018-08-09T11:44:18.264Z,1010.34
2018-08-09T11:45:18.271Z,1010.34
2018-08-09T11:46:18.285Z,1010.37
2018-08-09T11:47:18.291Z,1010.3
2018-08-09T11:48:18.277Z,1010.31
2018-08-09T11:49:18.388Z,1010.28
2018-08-09T11:50:18.259Z,1010.27
2018-08-09T11:51:18.300Z,1010.26
2018-08-09T11:52:18.702Z,1010.22
2018-08-09T11:53:18.281Z,1010.21
2018-08-09T11:54:18.272Z,1010.18
2018-08-09T11:55:18.471Z,1010.18
2018-08-09T11:56:18.404Z,1010.23
2018-08-09T11:57:18.487Z,1010.22
2018-08-09T11:58:18.308Z,1010.23
2018-08-09T11:59:18.285Z,1010.22
2018-08-09T12:00:18.428Z,1010.19
2018-08-09T12:01:18.303Z,1010.24
2018-08-09T12:02:18.338Z,1010.23
2018-08-09T12:03:18.401Z,1010.14
2018-08-09T12:04:18.356Z,1010.06
2018-08-09T12:05:18.322Z,1010.14
2018-08-09T12:06:18.371Z,1010.15
2018-08-09T12:07:18.338Z,1010.19
2018-08-09T12:08:18.342Z,1010.16